Time;durP1;ratioP1;P1;durP2;ratioP2;P2;SDS_P1;SDS_P2;PMS_P1;PMS_P2;Temp;Humidity;BMP_temperature;BMP_pressure;BME280_temperature;BME280_humidity;BME280_pressure;Samples;Min_cycle;Max_cycle;Signal;HPM_P1;HPM_P2
2022/11/21 00:01:57;;;;;;;36.00;19.60;;;2.00;99.90;;;;;;5062647;22;20445;-82
2022/11/21 00:04:22;;;;;;;33.90;18.20;;;2.10;99.90;;;;;;5026800;28;20033;-82
2022/11/21 00:06:51;;;;;;;32.97;18.58;;;2.10;99.90;;;;;;5033275;28;20384;-82
2022/11/21 00:09:17;;;;;;;36.05;19.27;;;2.10;99.90;;;;;;5039964;28;20063;-82
2022/11/21 00:11:42;;;;;;;34.80;18.95;;;2.10;99.90;;;;;;5017952;28;20037;-82
2022/11/21 00:14:08;;;;;;;38.92;19.10;;;2.10;99.90;;;;;;5010048;28;20038;-82
2022/11/21 00:16:33;;;;;;;39.92;19.67;;;2.00;99.90;;;;;;5013709;28;20160;-82
2022/11/21 00:18:59;;;;;;;36.50;19.40;;;2.10;99.90;;;;;;5006378;28;20093;-82
2022/11/21 00:21:24;;;;;;;38.97;18.83;;;2.10;99.90;;;;;;4992175;28;20444;-82
2022/11/21 00:23:51;;;;;;;32.47;18.17;;;2.10;99.90;;;;;;5014247;28;20488;-82
2022/11/21 00:26:17;;;;;;;33.05;18.58;;;2.10;99.90;;;;;;5013676;28;20081;-82
2022/11/21 00:28:43;;;;;;;34.70;17.95;;;2.10;99.90;;;;;;5007602;28;20429;-81
2022/11/21 00:31:16;;;;;;;32.10;17.77;;;2.10;99.90;;;;;;5010965;28;20081;-81
2022/11/21 00:33:42;;;;;;;32.55;17.98;;;2.10;99.90;;;;;;5000598;28;20041;-81
2022/11/21 00:36:08;;;;;;;33.55;17.70;;;2.10;99.90;;;;;;5014001;28;20129;-81
2022/11/21 00:38:34;;;;;;;34.55;18.90;;;2.10;99.90;;;;;;5012581;28;20030;-81
2022/11/21 00:41:00;;;;;;;34.88;18.33;;;2.10;99.90;;;;;;5014461;28;20092;-81
2022/11/21 00:43:25;;;;;;;34.05;18.80;;;2.10;99.90;;;;;;5008193;28;20068;-81
2022/11/21 00:45:51;;;;;;;33.95;18.42;;;2.00;99.90;;;;;;5010927;28;20065;-81
2022/11/21 00:48:16;;;;;;;36.85;19.73;;;2.00;99.90;;;;;;5017680;28;20048;-81
2022/11/21 00:50:42;;;;;;;31.75;17.85;;;2.00;99.90;;;;;;5014172;28;20041;-81
2022/11/21 00:53:07;;;;;;;33.67;18.92;;;2.00;99.90;;;;;;5019660;28;20050;-81
2022/11/21 00:55:35;;;;;;;32.85;18.63;;;2.00;99.90;;;;;;5006301;28;20065;-81
2022/11/21 00:58:01;;;;;;;34.47;18.92;;;2.00;99.90;;;;;;4999801;28;20042;-82
2022/11/21 01:00:27;;;;;;;31.23;17.42;;;2.00;99.90;;;;;;5011361;28;20091;-82
2022/11/21 01:02:52;;;;;;;35.45;18.52;;;2.00;99.90;;;;;;5022395;28;20041;-82
2022/11/21 01:05:18;;;;;;;39.97;19.85;;;2.00;99.90;;;;;;5004185;28;20498;-82
2022/11/21 01:07:43;;;;;;;33.25;18.48;;;2.00;99.90;;;;;;5009537;28;20546;-82
2022/11/21 01:10:09;;;;;;;33.30;19.02;;;2.00;99.90;;;;;;5003580;28;20517;-82
2022/11/21 01:12:34;;;;;;;33.70;18.40;;;2.00;99.90;;;;;;5001734;28;20077;-82
2022/11/21 01:15:00;;;;;;;31.88;18.48;;;2.00;99.90;;;;;;5007875;28;20554;-82
2022/11/21 01:17:25;;;;;;;32.95;17.50;;;2.00;99.90;;;;;;5019182;28;20096;-82
2022/11/21 01:19:51;;;;;;;30.92;17.10;;;2.00;99.90;;;;;;5009286;28;20049;-82
2022/11/21 01:22:16;;;;;;;31.60;16.92;;;2.10;99.90;;;;;;4995686;28;20042;-82
2022/11/21 01:24:42;;;;;;;30.27;16.95;;;2.10;99.90;;;;;;5011488;28;20042;-82
2022/11/21 01:27:07;;;;;;;32.00;17.52;;;2.00;99.90;;;;;;5003796;28;20041;-82
2022/11/21 01:29:33;;;;;;;32.58;17.70;;;2.00;99.90;;;;;;5002818;28;20049;-82
2022/11/21 01:31:58;;;;;;;34.22;18.83;;;1.90;99.90;;;;;;5003962;28;20624;-82
2022/11/21 01:34:24;;;;;;;31.67;17.52;;;2.00;99.90;;;;;;4985891;28;20552;-81
2022/11/21 01:36:49;;;;;;;35.03;18.40;;;2.00;99.90;;;;;;4990830;28;20407;-82
2022/11/21 01:39:15;;;;;;;30.25;17.15;;;2.00;99.90;;;;;;5011587;28;20042;-82
2022/11/21 01:41:43;;;;;;;32.72;18.33;;;2.00;99.90;;;;;;5007556;28;20449;-82
2022/11/21 01:44:19;;;;;;;29.90;17.58;;;2.00;99.90;;;;;;4991094;28;20087;-82
2022/11/21 01:46:46;;;;;;;29.92;16.95;;;2.00;99.90;;;;;;5010763;28;20038;-82
2022/11/21 01:49:18;;;;;;;31.88;16.58;;;2.00;99.90;;;;;;5006155;28;20394;-82
2022/11/21 01:51:48;;;;;;;29.10;16.63;;;2.00;99.90;;;;;;5004605;28;20053;-82
2022/11/21 01:54:23;;;;;;;31.80;17.60;;;2.00;99.90;;;;;;5023298;28;20037;-82
2022/11/21 01:56:53;;;;;;;29.35;16.90;;;2.00;99.90;;;;;;5008508;28;20134;-82
2022/11/21 01:59:24;;;;;;;32.47;17.80;;;2.00;99.90;;;;;;5008677;28;20061;-82
2022/11/21 02:01:52;;;;;;;33.10;17.42;;;2.00;99.90;;;;;;5010509;28;20044;-82
2022/11/21 02:04:20;;;;;;;30.05;17.98;;;2.00;99.90;;;;;;5017610;28;20038;-81
2022/11/21 02:06:46;;;;;;;34.63;18.80;;;2.00;99.90;;;;;;5014362;28;20049;-81
2022/11/21 02:09:11;;;;;;;33.72;17.90;;;2.00;99.90;;;;;;5009649;28;20057;-81
2022/11/21 02:11:43;;;;;;;29.83;17.42;;;2.00;99.90;;;;;;5003920;28;20064;-81
2022/11/21 02:14:10;;;;;;;34.35;17.90;;;2.00;99.90;;;;;;5007034;28;20046;-81
2022/11/21 02:16:36;;;;;;;32.72;17.75;;;2.00;99.90;;;;;;5004937;28;20506;-81
2022/11/21 02:19:03;;;;;;;33.13;18.67;;;2.00;99.90;;;;;;5014856;28;20042;-81
2022/11/21 02:21:28;;;;;;;32.15;18.10;;;2.00;99.90;;;;;;5019252;28;20044;-81
2022/11/21 02:24:21;;;;;;;32.20;17.38;;;1.90;99.90;;;;;;5003178;28;20034;-81
2022/11/21 02:26:47;;;;;;;;;;;1.90;99.90;;;;;;5000218;28;20474;-81
2022/11/21 02:29:14;;;;;;;31.35;17.75;;;1.90;99.90;;;;;;5010039;28;19963;-81
2022/11/21 02:31:40;;;;;;;33.83;17.90;;;1.90;99.90;;;;;;4999181;28;20096;-81
2022/11/21 02:34:05;;;;;;;30.92;16.48;;;2.00;99.90;;;;;;5006793;28;20079;-81
2022/11/21 02:36:39;;;;;;;32.83;17.58;;;2.00;99.90;;;;;;4999995;28;20113;-81
2022/11/21 02:39:08;;;;;;;33.22;18.45;;;1.90;99.90;;;;;;4988115;28;20038;-81
2022/11/21 02:41:36;;;;;;;33.17;17.75;;;1.90;99.90;;;;;;5007030;28;20453;-81
2022/11/21 02:44:07;;;;;;;31.98;17.33;;;2.00;99.90;;;;;;5006597;28;20050;-81
2022/11/21 02:46:34;;;;;;;36.05;18.52;;;1.90;99.90;;;;;;5028687;28;20124;-81
2022/11/21 02:49:06;;;;;;;31.70;17.85;;;2.10;99.90;;;;;;4996513;28;20046;-82
2022/11/21 02:51:32;;;;;;;31.85;17.85;;;1.90;99.90;;;;;;5009044;28;20113;-82
2022/11/21 02:53:57;;;;;;;34.03;18.73;;;1.90;99.90;;;;;;5014117;28;20105;-83
2022/11/21 02:56:23;;;;;;;31.95;17.85;;;1.90;99.90;;;;;;5009360;28;20158;-81
2022/11/21 02:58:48;;;;;;;35.13;18.73;;;2.00;99.90;;;;;;5027440;28;20065;-81
2022/11/21 03:01:14;;;;;;;35.45;17.85;;;2.00;99.90;;;;;;5024845;28;20033;-81
2022/11/21 03:03:39;;;;;;;31.73;18.48;;;2.00;99.90;;;;;;5011134;28;20441;-81
2022/11/21 03:06:05;;;;;;;37.78;18.52;;;2.00;99.90;;;;;;5010157;28;20573;-81
2022/11/21 03:08:30;;;;;;;35.75;18.38;;;2.00;99.90;;;;;;5015825;28;20192;-81
2022/11/21 03:10:56;;;;;;;35.90;17.50;;;2.00;99.90;;;;;;5021029;28;20050;-81
2022/11/21 03:13:21;;;;;;;32.75;18.02;;;2.00;99.90;;;;;;5016155;28;20061;-81
2022/11/21 03:15:47;;;;;;;34.28;18.95;;;2.00;99.90;;;;;;5005790;28;20038;-81
2022/11/21 03:18:12;;;;;;;30.85;17.25;;;2.00;99.90;;;;;;5009107;28;20248;-80
2022/11/21 03:20:38;;;;;;;30.27;17.60;;;2.00;99.90;;;;;;5011167;28;20052;-81
2022/11/21 03:23:03;;;;;;;30.30;17.90;;;1.90;99.90;;;;;;5012382;28;20379;-81
2022/11/21 03:25:30;;;;;;;32.35;17.45;;;1.90;99.90;;;;;;5013005;28;20045;-82
2022/11/21 03:27:55;;;;;;;31.73;17.02;;;2.00;99.90;;;;;;5015738;28;20044;-82
2022/11/21 03:30:23;;;;;;;29.33;17.45;;;1.90;99.90;;;;;;5011936;28;20046;-82
2022/11/21 03:32:48;;;;;;;29.30;16.92;;;1.90;99.90;;;;;;5010302;28;20519;-82
2022/11/21 03:35:14;;;;;;;29.42;16.52;;;1.80;99.90;;;;;;5016089;28;20029;-82
2022/11/21 03:37:40;;;;;;;31.65;17.25;;;1.80;99.90;;;;;;5018745;28;20091;-82
2022/11/21 03:40:06;;;;;;;34.42;18.02;;;1.80;99.90;;;;;;5014175;28;20061;-82
2022/11/21 03:42:32;;;;;;;34.42;17.80;;;1.80;99.90;;;;;;5016290;28;20034;-82
2022/11/21 03:44:57;;;;;;;32.75;17.65;;;1.80;99.90;;;;;;5016844;28;20045;-82
2022/11/21 03:47:24;;;;;;;30.08;17.55;;;1.80;99.90;;;;;;5016120;28;20046;-82
2022/11/21 03:49:50;;;;;;;31.08;17.10;;;1.70;99.90;;;;;;5012553;28;20495;-82
2022/11/21 03:52:15;;;;;;;31.00;16.33;;;1.80;99.90;;;;;;5011084;28;20087;-82
2022/11/21 03:54:41;;;;;;;27.48;16.15;;;1.70;99.90;;;;;;5020365;28;20042;-82
2022/11/21 03:57:06;;;;;;;30.30;17.13;;;1.70;99.90;;;;;;5011446;28;20045;-82
2022/11/21 03:59:32;;;;;;;29.73;16.35;;;1.70;99.90;;;;;;5027865;28;20039;-82
2022/11/21 04:01:57;;;;;;;27.83;15.82;;;1.80;99.90;;;;;;5016261;28;20041;-82
2022/11/21 04:04:23;;;;;;;28.48;16.45;;;1.70;99.90;;;;;;5004337;28;20030;-82
2022/11/21 04:06:48;;;;;;;28.27;15.57;;;1.70;99.90;;;;;;5004940;28;20115;-82
2022/11/21 04:09:14;;;;;;;28.50;16.55;;;1.70;99.90;;;;;;5003106;28;20052;-82
2022/11/21 04:11:39;;;;;;;32.75;17.98;;;1.70;99.90;;;;;;5014403;28;20042;-82
2022/11/21 04:14:05;;;;;;;29.88;16.10;;;1.80;99.90;;;;;;5014444;28;20477;-82
2022/11/21 04:16:30;;;;;;;30.00;17.27;;;1.70;99.90;;;;;;5011547;28;20042;-82
2022/11/21 04:18:56;;;;;;;30.25;15.73;;;1.60;99.90;;;;;;5009128;28;20203;-82
2022/11/21 04:21:21;;;;;;;32.00;17.20;;;1.70;99.90;;;;;;5001120;28;20045;-82
2022/11/21 04:23:47;;;;;;;29.70;16.73;;;1.80;99.90;;;;;;5004760;28;20061;-82
2022/11/21 04:26:12;;;;;;;30.52;17.05;;;1.70;99.90;;;;;;5014464;28;20488;-82
2022/11/21 04:28:38;;;;;;;32.17;16.83;;;1.60;99.90;;;;;;4990071;28;20039;-82
2022/11/21 04:31:05;;;;;;;31.52;17.02;;;1.70;99.90;;;;;;4986060;28;20515;-82
2022/11/21 04:33:30;;;;;;;29.52;16.83;;;1.50;99.90;;;;;;5002962;28;20121;-82
2022/11/21 04:35:56;;;;;;;35.75;17.83;;;1.50;99.90;;;;;;5001246;28;20138;-81
2022/11/21 04:38:22;;;;;;;31.95;18.02;;;1.40;99.90;;;;;;4997943;28;20037;-80
2022/11/21 04:40:47;;;;;;;31.02;17.60;;;1.50;99.90;;;;;;5001254;28;20046;-80
2022/11/21 04:43:13;;;;;;;32.55;19.15;;;1.30;99.90;;;;;;5016623;28;20042;-79
2022/11/21 04:45:38;;;;;;;32.00;17.20;;;1.30;99.90;;;;;;4992765;28;20045;-80
2022/11/21 04:48:04;;;;;;;29.83;16.67;;;1.30;99.90;;;;;;5013829;28;20096;-80
2022/11/21 04:50:29;;;;;;;32.72;17.95;;;1.30;99.90;;;;;;4999481;28;20117;-80
2022/11/21 04:52:56;;;;;;;31.20;16.77;;;1.20;99.90;;;;;;5006209;28;20575;-80
2022/11/21 04:55:28;;;;;;;29.60;16.73;;;1.20;99.90;;;;;;5010940;28;20048;-80
2022/11/21 04:57:53;;;;;;;30.65;16.58;;;1.20;99.90;;;;;;5007482;28;20034;-80
2022/11/21 05:00:19;;;;;;;29.05;16.58;;;1.10;99.90;;;;;;5005971;28;20129;-80
2022/11/21 05:02:44;;;;;;;28.73;16.48;;;1.10;99.90;;;;;;5002283;28;20113;-81
2022/11/21 05:05:10;;;;;;;31.13;17.42;;;1.10;99.90;;;;;;5007765;28;20505;-80
2022/11/21 05:07:37;;;;;;;29.55;16.58;;;1.00;99.90;;;;;;4997543;28;20049;-80
2022/11/21 05:10:04;;;;;;;28.30;16.40;;;1.00;99.90;;;;;;5003292;28;20526;-80
2022/11/21 05:15:14;;;;;;;32.55;16.98;;;1.00;99.90;;;;;;5010702;28;20069;-80
2022/11/21 05:17:39;;;;;;;33.63;18.02;;;1.00;99.90;;;;;;5004905;28;20481;-80
2022/11/21 05:20:05;;;;;;;31.67;17.73;;;0.90;99.90;;;;;;5011132;28;20038;-79
2022/11/21 05:22:31;;;;;;;31.63;17.50;;;0.90;99.90;;;;;;5009996;28;20414;-79
2022/11/21 05:24:57;;;;;;;31.13;17.48;;;0.90;99.90;;;;;;5007642;28;20041;-79
2022/11/21 05:27:22;;;;;;;31.33;16.15;;;1.10;99.90;;;;;;5009871;28;20045;-79
2022/11/21 05:29:48;;;;;;;31.08;16.92;;;0.90;99.90;;;;;;5001133;28;20080;-79
2022/11/21 05:32:13;;;;;;;29.02;16.20;;;0.80;99.90;;;;;;5021401;28;20082;-80
2022/11/21 05:34:39;;;;;;;30.80;16.45;;;0.80;99.90;;;;;;5000373;28;20140;-79
2022/11/21 05:37:04;;;;;;;36.83;18.10;;;0.90;99.90;;;;;;5011301;28;20124;-80
2022/11/21 05:39:30;;;;;;;32.05;17.52;;;0.70;99.90;;;;;;5008519;28;20034;-79
2022/11/21 05:41:56;;;;;;;32.50;17.27;;;0.80;99.90;;;;;;5004488;28;20045;-79
2022/11/21 05:44:21;;;;;;;33.20;17.75;;;0.70;99.90;;;;;;4996904;28;20120;-79
2022/11/21 05:46:47;;;;;;;35.47;19.05;;;0.80;99.90;;;;;;5007359;28;20425;-79
2022/11/21 05:49:12;;;;;;;32.33;18.15;;;0.70;99.90;;;;;;5011154;28;20435;-79
2022/11/21 05:51:38;;;;;;;35.95;18.17;;;0.80;99.90;;;;;;5004283;28;20065;-79
2022/11/21 05:54:04;;;;;;;32.25;18.13;;;0.70;99.90;;;;;;5004552;28;20044;-78
2022/11/21 05:56:30;;;;;;;33.90;18.73;;;0.70;99.90;;;;;;4999109;28;20042;-79
2022/11/21 05:58:57;;;;;;;34.03;18.80;;;0.70;99.90;;;;;;5009906;28;20026;-79
2022/11/21 06:04:08;;;;;;;33.22;18.35;;;0.70;99.90;;;;;;5012559;28;20053;-80
2022/11/21 06:06:34;;;;;;;35.17;18.40;;;0.70;99.90;;;;;;4995021;28;20037;-81
2022/11/21 06:09:00;;;;;;;34.33;18.63;;;0.70;99.90;;;;;;5010622;28;20603;-82
2022/11/21 06:11:26;;;;;;;40.90;19.40;;;0.70;99.90;;;;;;5022800;28;20387;-80
2022/11/21 06:13:52;;;;;;;40.53;20.80;;;0.70;99.90;;;;;;5028110;28;20188;-79
2022/11/21 06:16:19;;;;;;;33.13;19.00;;;0.70;99.90;;;;;;5018845;28;20072;-78
2022/11/21 06:18:46;;;;;;;34.90;18.90;;;0.70;99.90;;;;;;5016367;28;20048;-78
2022/11/21 06:21:20;;;;;;;37.00;18.75;;;0.80;99.90;;;;;;5014215;28;20037;-81
2022/11/21 06:23:48;;;;;;;33.78;19.08;;;0.60;99.90;;;;;;5013545;28;20115;-78
2022/11/21 06:26:22;;;;;;;36.50;20.23;;;0.60;99.90;;;;;;5012855;28;20033;-79
2022/11/21 06:28:48;;;;;;;37.22;20.52;;;0.60;99.90;;;;;;5007796;28;20132;-76
2022/11/21 06:31:25;;;;;;;33.70;19.23;;;0.60;99.90;;;;;;5013107;28;20130;-78
2022/11/21 06:33:52;;;;;;;33.38;18.60;;;0.70;99.90;;;;;;5007131;28;20342;-78
2022/11/21 06:36:18;;;;;;;32.47;18.33;;;0.60;99.90;;;;;;5012288;28;20049;-77
2022/11/21 06:38:44;;;;;;;33.70;18.35;;;0.60;99.90;;;;;;4999402;28;20419;-78
2022/11/21 06:41:13;;;;;;;32.67;18.75;;;0.60;99.90;;;;;;5015165;28;20092;-78
2022/11/21 06:43:39;;;;;;;32.72;17.58;;;0.50;99.90;;;;;;5004740;28;20119;-78
2022/11/21 06:46:05;;;;;;;33.78;17.67;;;0.50;99.90;;;;;;4993197;28;20529;-77
2022/11/21 06:48:31;;;;;;;35.58;18.30;;;0.40;99.90;;;;;;4998161;28;20116;-77
2022/11/21 06:50:57;;;;;;;35.28;18.55;;;0.40;99.90;;;;;;4999012;28;20034;-78
2022/11/21 06:53:23;;;;;;;33.10;18.05;;;0.40;99.90;;;;;;5004899;28;20393;-77
2022/11/21 06:55:49;;;;;;;32.03;16.73;;;0.40;99.90;;;;;;4998067;28;20517;-77
2022/11/21 06:58:14;;;;;;;30.63;17.88;;;0.40;99.90;;;;;;4981073;28;20041;-77
2022/11/21 07:00:40;;;;;;;31.98;17.17;;;0.60;99.90;;;;;;5001403;28;20067;-78
2022/11/21 07:03:05;;;;;;;32.78;17.80;;;0.40;99.90;;;;;;4992657;28;20037;-77
2022/11/21 07:05:32;;;;;;;34.63;18.27;;;0.60;99.90;;;;;;5001856;28;20073;-77
2022/11/21 07:07:59;;;;;;;36.65;18.27;;;0.40;99.90;;;;;;4998515;28;20401;-78
2022/11/21 07:10:24;;;;;;;32.85;18.23;;;0.40;99.90;;;;;;4998315;28;20038;-77
2022/11/21 07:15:34;;;;;;;38.65;20.35;;;0.40;99.90;;;;;;5022881;28;20123;-76
2022/11/21 07:18:00;;;;;;;35.92;19.73;;;0.40;99.90;;;;;;5012044;28;20057;-76
2022/11/21 07:20:26;;;;;;;38.58;20.05;;;0.40;99.90;;;;;;5037116;28;20045;-75
2022/11/21 07:22:55;;;;;;;40.55;20.55;;;0.30;99.90;;;;;;5020645;28;20102;-77
2022/11/21 07:25:21;;;;;;;38.15;19.85;;;0.30;99.90;;;;;;5028571;28;20029;-76
2022/11/21 07:27:47;;;;;;;42.15;21.77;;;0.30;99.90;;;;;;5008989;28;20473;-76
2022/11/21 07:30:13;;;;;;;41.70;21.13;;;0.30;99.90;;;;;;5020071;28;20037;-76
2022/11/21 07:32:39;;;;;;;42.38;20.75;;;0.30;99.90;;;;;;5029149;28;20512;-76
2022/11/21 07:35:06;;;;;;;42.95;21.45;;;0.20;99.90;;;;;;5003295;28;20037;-76
2022/11/21 07:37:31;;;;;;;44.35;20.75;;;0.20;99.90;;;;;;5005989;28;20046;-76
2022/11/21 07:39:57;;;;;;;45.00;20.90;;;0.20;99.90;;;;;;5016450;28;20045;-77
2022/11/21 07:42:22;;;;;;;58.20;20.63;;;0.20;99.90;;;;;;5006094;28;20077;-77
2022/11/21 07:44:48;;;;;;;40.50;18.17;;;0.30;99.90;;;;;;4984877;28;20489;-76
2022/11/21 07:47:14;;;;;;;42.90;20.45;;;0.20;99.90;;;;;;5014853;28;20034;-76
2022/11/21 07:49:39;;;;;;;45.10;19.65;;;0.50;99.90;;;;;;5014418;28;20140;-76
2022/11/21 07:52:05;;;;;;;35.17;19.45;;;0.30;99.90;;;;;;5016625;28;20056;-76
2022/11/21 07:54:30;;;;;;;42.33;18.52;;;0.50;99.90;;;;;;5014048;28;20041;-76
2022/11/21 07:56:56;;;;;;;47.60;17.80;;;0.50;99.90;;;;;;5017455;28;20052;-76
2022/11/21 07:59:22;;;;;;;36.53;18.27;;;0.30;99.90;;;;;;5006366;28;20042;-76
2022/11/21 08:01:49;;;;;;;37.17;19.20;;;0.40;99.90;;;;;;5006328;28;20049;-76
2022/11/21 08:04:14;;;;;;;34.70;18.95;;;0.50;99.90;;;;;;5008198;28;20034;-76
2022/11/21 08:06:40;;;;;;;54.75;18.30;;;0.40;99.90;;;;;;5019180;28;20040;-76
2022/11/21 08:09:05;;;;;;;31.00;17.77;;;0.50;99.90;;;;;;5011743;28;20400;-76
2022/11/21 08:11:31;;;;;;;32.22;17.90;;;0.50;99.90;;;;;;5017558;28;20048;-76
2022/11/21 08:13:58;;;;;;;36.03;18.15;;;0.50;99.90;;;;;;5025230;28;20034;-75
2022/11/21 08:16:26;;;;;;;41.33;18.50;;;0.60;99.90;;;;;;5016285;28;20052;-76
2022/11/21 08:18:52;;;;;;;33.55;17.60;;;0.60;99.90;;;;;;5033146;28;20045;-75
2022/11/21 08:21:18;;;;;;;35.90;17.02;;;0.70;99.90;;;;;;5041379;28;20040;-75
2022/11/21 08:23:43;;;;;;;34.67;18.50;;;0.70;99.90;;;;;;5019399;28;20397;-75
2022/11/21 08:26:09;;;;;;;33.72;18.25;;;0.80;99.90;;;;;;5042682;28;20479;-74
2022/11/21 08:28:35;;;;;;;37.72;17.42;;;1.00;99.90;;;;;;5040591;28;20511;-75
2022/11/21 08:31:04;;;;;;;50.60;17.45;;;0.80;99.90;;;;;;5012102;28;20498;-75
2022/11/21 08:33:31;;;;;;;34.40;17.40;;;1.00;99.90;;;;;;5006333;28;20104;-75
2022/11/21 08:35:56;;;;;;;47.97;17.65;;;0.90;99.90;;;;;;5009352;28;20104;-76
2022/11/21 08:38:22;;;;;;;36.45;16.58;;;0.90;99.90;;;;;;5011979;28;20184;-76
2022/11/21 08:42:01;;;;;;;38.67;15.23;;;0.90;99.90;;;;;;5021800;28;20560;-76
2022/11/21 08:43:33;;;;;;;26.25;13.48;;;1.00;99.90;;;;;;5009271;28;20052;-76
2022/11/21 08:45:58;;;;;;;26.15;13.88;;;1.00;99.90;;;;;;5020828;28;20041;-76
2022/11/21 08:48:24;;;;;;;28.25;14.30;;;1.20;99.90;;;;;;5016202;28;20052;-77
2022/11/21 08:50:52;;;;;;;41.30;14.90;;;1.00;99.90;;;;;;5007666;28;20033;-77
2022/11/21 08:53:17;;;;;;;25.77;13.38;;;1.00;99.90;;;;;;5013540;28;20052;-77
2022/11/21 08:55:43;;;;;;;26.95;13.32;;;1.30;99.90;;;;;;5017653;28;20037;-77
2022/11/21 08:58:08;;;;;;;45.58;13.88;;;1.10;99.90;;;;;;5018927;28;20417;-77
2022/11/21 09:00:34;;;;;;;28.80;14.25;;;1.10;99.90;;;;;;5014403;28;20042;-77
2022/11/21 09:03:03;;;;;;;26.13;13.75;;;1.10;99.90;;;;;;5016805;28;20041;-77
2022/11/21 09:05:29;;;;;;;23.95;13.18;;;1.10;99.90;;;;;;5011166;28;20033;-77
2022/11/21 09:07:56;;;;;;;27.38;13.55;;;1.10;99.90;;;;;;5009664;28;20098;-76
2022/11/21 09:10:22;;;;;;;23.88;13.32;;;1.20;99.90;;;;;;5017492;28;20429;-76
2022/11/21 09:12:48;;;;;;;23.40;13.10;;;1.20;99.90;;;;;;5014749;28;20088;-76
2022/11/21 09:18:03;;;;;;;23.30;12.82;;;1.40;99.90;;;;;;5008394;28;20140;-76
2022/11/21 09:20:29;;;;;;;23.58;12.32;;;2.20;99.90;;;;;;5043520;28;20404;-76
2022/11/21 09:22:55;;;;;;;19.92;11.27;;;1.60;99.90;;;;;;5014354;28;20030;-76
2022/11/21 09:25:20;;;;;;;21.05;11.65;;;1.50;99.90;;;;;;5023369;28;20047;-76
2022/11/21 09:27:46;;;;;;;19.67;11.63;;;1.50;99.90;;;;;;5022056;28;20504;-75
2022/11/21 09:30:11;;;;;;;20.27;11.07;;;1.50;99.90;;;;;;5015308;28;20041;-76
2022/11/21 09:32:39;;;;;;;19.52;11.38;;;1.60;99.90;;;;;;5029486;28;20135;-76
2022/11/21 09:35:05;;;;;;;21.35;11.88;;;1.80;99.90;;;;;;5022699;28;20120;-76
2022/11/21 09:37:36;;;;;;;20.35;11.48;;;1.70;99.90;;;;;;5022477;28;20374;-76
2022/11/21 09:40:02;;;;;;;22.08;11.57;;;1.80;99.90;;;;;;5020429;28;20088;-76
2022/11/21 09:43:08;;;;;;;21.77;12.05;;;1.80;99.90;;;;;;5030376;28;20065;-76
2022/11/21 09:45:48;;;;;;;20.60;12.07;;;1.80;99.90;;;;;;4998356;28;20048;-76
2022/11/21 09:48:19;;;;;;;21.80;11.80;;;1.90;99.90;;;;;;4994270;28;20056;-76
2022/11/21 09:50:52;;;;;;;24.42;12.75;;;1.90;99.90;;;;;;5017508;28;20096;-76
2022/11/21 09:53:27;;;;;;;23.35;12.40;;;1.90;99.90;;;;;;5014532;28;20057;-76
2022/11/21 09:55:58;;;;;;;22.38;12.95;;;1.90;99.90;;;;;;5021929;28;20501;-76
2022/11/21 09:58:40;;;;;;;20.60;12.32;;;2.00;99.90;;;;;;5013817;28;20045;-76
2022/11/21 10:01:13;;;;;;;;;;;2.00;99.90;;;;;;5014674;28;20429;-76
2022/11/21 10:03:51;;;;;;;19.70;11.38;;;2.00;99.90;;;;;;5013304;28;19925;-76
2022/11/21 10:06:20;;;;;;;21.30;12.18;;;2.10;99.90;;;;;;5013398;28;20405;-76
2022/11/21 10:08:57;;;;;;;19.98;11.25;;;2.10;99.90;;;;;;5017905;28;20059;-75
2022/11/21 10:11:34;;;;;;;20.67;12.10;;;2.20;99.90;;;;;;5016059;28;20041;-75
2022/11/21 10:14:11;;;;;;;20.42;11.65;;;2.20;99.90;;;;;;5023469;28;20045;-75
2022/11/21 10:16:48;;;;;;;19.77;11.40;;;2.30;99.90;;;;;;5015282;28;20041;-77
2022/11/21 10:19:20;;;;;;;20.02;11.38;;;2.30;99.90;;;;;;5018530;28;20034;-76
2022/11/21 10:22:20;;;;;;;18.38;11.00;;;2.30;99.90;;;;;;5025235;28;20037;-76
2022/11/21 10:24:58;;;;;;;18.33;10.30;;;2.30;99.90;;;;;;5013624;28;20095;-76
2022/11/21 10:27:45;;;;;;;21.15;11.15;;;2.30;99.90;;;;;;5017034;28;20053;-76
2022/11/21 10:30:15;;;;;;;18.35;10.75;;;2.30;99.90;;;;;;5011141;28;20046;-76
2022/11/21 10:32:47;;;;;;;19.08;10.23;;;2.30;99.90;;;;;;5027903;28;20496;-76
2022/11/21 10:35:35;;;;;;;17.05;10.43;;;2.40;99.90;;;;;;5013158;28;20049;-76
2022/11/21 10:38:02;;;;;;;17.55;9.88;;;2.40;99.90;;;;;;5019382;28;20053;-77
2022/11/21 10:41:01;;;;;;;16.75;9.80;;;2.50;99.90;;;;;;5013186;28;20394;-76
2022/11/21 10:46:13;;;;;;;18.00;9.45;;;2.60;99.90;;;;;;5024779;28;20052;-77
2022/11/21 10:48:39;;;;;;;19.35;9.93;;;2.70;99.90;;;;;;5016728;28;20108;-76
2022/11/21 10:51:34;;;;;;;16.55;9.93;;;2.70;99.90;;;;;;5019496;28;20120;-76
2022/11/21 10:56:55;;;;;;;18.05;10.52;;;2.80;99.90;;;;;;5016482;28;20188;-77
2022/11/21 10:59:25;;;;;;;19.05;10.90;;;2.80;99.90;;;;;;5032228;28;20121;-76
2022/11/21 11:02:02;;;;;;;17.33;9.80;;;2.90;99.90;;;;;;5025729;28;20068;-76
2022/11/21 11:04:31;;;;;;;19.27;10.52;;;2.90;99.90;;;;;;5005263;28;20067;-76
2022/11/21 11:07:12;;;;;;;19.40;11.73;;;3.00;99.90;;;;;;5026186;28;20040;-76
2022/11/21 11:09:39;;;;;;;24.08;12.90;;;3.00;99.90;;;;;;5012017;28;20633;-76
2022/11/21 11:13:32;;;;;;;22.27;12.50;;;3.00;99.90;;;;;;5011908;28;20042;-76
2022/11/21 11:15:25;;;;;;;31.50;15.15;;;3.00;99.90;;;;;;5013989;28;20079;-76
2022/11/21 11:18:00;;;;;;;27.58;15.05;;;3.00;99.90;;;;;;5013161;28;20042;-76
2022/11/21 11:20:33;;;;;;;21.98;13.50;;;3.00;99.90;;;;;;5022609;28;20101;-76
2022/11/21 11:22:59;;;;;;;23.67;13.32;;;3.00;99.90;;;;;;5017931;28;20552;-76
2022/11/21 11:25:25;;;;;;;23.60;13.30;;;3.90;99.90;;;;;;5002612;28;20029;-76
2022/11/21 11:27:51;;;;;;;23.02;13.30;;;3.10;99.90;;;;;;5023442;28;20045;-76
2022/11/21 11:30:18;;;;;;;22.50;13.25;;;3.10;99.90;;;;;;5045475;28;20044;-76
2022/11/21 11:32:44;;;;;;;24.33;14.00;;;3.10;99.90;;;;;;5023104;28;20064;-76
2022/11/21 11:35:21;;;;;;;23.52;13.85;;;3.10;99.90;;;;;;5022033;28;20479;-76
2022/11/21 11:38:04;;;;;;;29.17;15.23;;;3.10;99.90;;;;;;5016608;28;20049;-76
2022/11/21 11:40:40;;;;;;;27.60;14.32;;;3.10;99.90;;;;;;5023037;28;20048;-76
2022/11/21 11:53:01;;;;;;;28.98;16.33;;;3.10;99.90;;;;;;5017515;28;20176;-76
2022/11/21 11:55:47;;;;;;;30.48;16.33;;;3.10;99.90;;;;;;5027613;28;20071;-76
2022/11/21 11:58:56;;;;;;;30.17;16.58;;;3.20;99.90;;;;;;5028733;28;20044;-76
2022/11/21 12:01:53;;;;;;;31.17;17.48;;;3.20;99.90;;;;;;5002263;28;20277;-76
2022/11/21 12:04:21;;;;;;;31.23;17.27;;;3.30;99.90;;;;;;5028913;28;20045;-76
2022/11/21 12:07:07;;;;;;;35.05;18.50;;;3.40;99.90;;;;;;4995997;28;20040;-76
2022/11/21 12:09:44;;;;;;;28.40;15.95;;;3.40;99.90;;;;;;4998777;28;20038;-76
2022/11/21 12:12:34;;;;;;;27.67;15.98;;;3.50;99.90;;;;;;5000043;28;20049;-77
2022/11/21 12:18:19;;;;;;;29.58;15.95;;;3.60;99.90;;;;;;5037237;28;20092;-76
2022/11/21 12:20:58;;;;;;;31.40;16.58;;;3.60;99.90;;;;;;4996200;28;20033;-77
2022/11/21 12:23:35;;;;;;;28.95;16.55;;;3.60;99.90;;;;;;5017531;28;20064;-77
2022/11/21 12:26:19;;;;;;;31.30;16.95;;;3.60;99.90;;;;;;5024178;28;20417;-77
2022/11/21 12:29:03;;;;;;;34.20;17.42;;;3.60;99.90;;;;;;4996002;28;20048;-77
2022/11/21 12:31:44;;;;;;;32.40;16.80;;;3.60;99.90;;;;;;5027154;28;20044;-77
2022/11/21 12:34:47;;;;;;;33.17;17.48;;;3.50;99.90;;;;;;5015724;28;20440;-77
2022/11/21 12:37:18;;;;;;;33.95;17.05;;;3.50;99.90;;;;;;5023261;28;20571;-77
2022/11/21 12:40:23;;;;;;;33.33;16.75;;;3.50;99.90;;;;;;5021336;28;20136;-77
2022/11/21 12:42:55;;;;;;;38.53;17.35;;;3.50;99.90;;;;;;5011882;28;20068;-76
2022/11/21 12:45:36;;;;;;;33.45;17.13;;;3.40;99.90;;;;;;5022073;28;20038;-76
2022/11/21 12:56:56;;;;;;;33.28;17.33;;;3.50;99.90;;;;;;5023232;28;20049;-77
2022/11/21 12:59:23;;;;;;;33.70;17.30;;;3.50;99.90;;;;;;4991012;28;20069;-76
2022/11/21 13:02:02;;;;;;;35.05;17.30;;;3.50;99.90;;;;;;5023283;28;20497;-75
2022/11/21 13:04:33;;;;;;;34.60;17.83;;;3.50;99.90;;;;;;5016180;28;20045;-76
2022/11/21 13:07:00;;;;;;;38.08;17.52;;;3.50;99.90;;;;;;5011575;28;20045;-78
2022/11/21 13:09:29;;;;;;;36.97;17.70;;;3.50;99.90;;;;;;5016301;28;20048;-73
2022/11/21 13:12:01;;;;;;;33.03;17.63;;;3.50;99.90;;;;;;5015646;28;20685;-75
2022/11/21 13:14:50;;;;;;;37.47;17.67;;;3.50;99.90;;;;;;5017406;28;20183;-76
2022/11/21 13:17:24;;;;;;;32.38;16.67;;;3.50;99.90;;;;;;5010764;28;20046;-77
2022/11/21 13:20:16;;;;;;;35.83;17.20;;;3.50;99.90;;;;;;5012345;28;20067;-77
2022/11/21 13:22:45;;;;;;;32.80;16.63;;;3.60;99.90;;;;;;5046625;28;20465;-77
2022/11/21 13:25:30;;;;;;;32.50;17.17;;;3.60;99.90;;;;;;5013571;28;20045;-77
2022/11/21 13:28:18;;;;;;;38.38;19.13;;;3.70;99.90;;;;;;4999491;28;20065;-78